sensor_id;sensor_type;location;lat;lon;timestamp;P1;durP1;ratioP1;P2;durP2;ratioP2
72201;SDS011;60105;54.956;73.412;2022-09-24T00:01:56;65.82;;;37.85;;
72201;SDS011;60105;54.956;73.412;2022-09-24T00:04:23;57.38;;;37.80;;
72201;SDS011;60105;54.956;73.412;2022-09-24T00:06:50;59.67;;;38.33;;
72201;SDS011;60105;54.956;73.412;2022-09-24T00:09:22;58.60;;;36.87;;
72201;SDS011;60105;54.956;73.412;2022-09-24T00:11:49;61.58;;;37.58;;
72201;SDS011;60105;54.956;73.412;2022-09-24T00:14:19;68.40;;;40.35;;
72201;SDS011;60105;54.956;73.412;2022-09-24T00:16:45;63.83;;;39.10;;
72201;SDS011;60105;54.956;73.412;2022-09-24T00:19:12;62.63;;;38.92;;
72201;SDS011;60105;54.956;73.412;2022-09-24T00:21:39;59.60;;;37.40;;
72201;SDS011;60105;54.956;73.412;2022-09-24T00:24:11;67.43;;;40.47;;
72201;SDS011;60105;54.956;73.412;2022-09-24T00:26:59;62.85;;;40.83;;
72201;SDS011;60105;54.956;73.412;2022-09-24T00:29:33;70.40;;;40.00;;
72201;SDS011;60105;54.956;73.412;2022-09-24T00:32:00;67.35;;;39.30;;
72201;SDS011;60105;54.956;73.412;2022-09-24T00:34:27;65.17;;;39.80;;
72201;SDS011;60105;54.956;73.412;2022-09-24T00:36:53;60.40;;;39.65;;
72201;SDS011;60105;54.956;73.412;2022-09-24T00:39:24;67.65;;;39.60;;
72201;SDS011;60105;54.956;73.412;2022-09-24T00:41:55;69.38;;;40.28;;
72201;SDS011;60105;54.956;73.412;2022-09-24T00:47:31;69.20;;;39.33;;
72201;SDS011;60105;54.956;73.412;2022-09-24T00:50:05;64.05;;;38.45;;
72201;SDS011;60105;54.956;73.412;2022-09-24T00:52:39;62.63;;;37.67;;
72201;SDS011;60105;54.956;73.412;2022-09-24T00:55:11;65.43;;;35.97;;
72201;SDS011;60105;54.956;73.412;2022-09-24T00:57:38;55.92;;;35.58;;
72201;SDS011;60105;54.956;73.412;2022-09-24T01:00:06;58.57;;;37.50;;
72201;SDS011;60105;54.956;73.412;2022-09-24T01:02:34;67.05;;;37.63;;
72201;SDS011;60105;54.956;73.412;2022-09-24T01:05:02;57.17;;;37.50;;
72201;SDS011;60105;54.956;73.412;2022-09-24T01:07:29;51.20;;;33.88;;
72201;SDS011;60105;54.956;73.412;2022-09-24T01:09:55;59.15;;;36.13;;
72201;SDS011;60105;54.956;73.412;2022-09-24T01:12:45;56.50;;;35.30;;
72201;SDS011;60105;54.956;73.412;2022-09-24T01:31:52;51.83;;;32.35;;
72201;SDS011;60105;54.956;73.412;2022-09-24T01:34:34;49.53;;;30.67;;
72201;SDS011;60105;54.956;73.412;2022-09-24T01:37:08;50.58;;;30.30;;
72201;SDS011;60105;54.956;73.412;2022-09-24T01:39:35;50.17;;;30.20;;
72201;SDS011;60105;54.956;73.412;2022-09-24T01:42:12;49.20;;;28.48;;
72201;SDS011;60105;54.956;73.412;2022-09-24T01:44:39;49.60;;;29.63;;
72201;SDS011;60105;54.956;73.412;2022-09-24T01:47:09;44.90;;;28.63;;
72201;SDS011;60105;54.956;73.412;2022-09-24T01:49:40;47.53;;;28.85;;
72201;SDS011;60105;54.956;73.412;2022-09-24T01:52:08;47.20;;;29.40;;
72201;SDS011;60105;54.956;73.412;2022-09-24T01:54:40;47.58;;;28.13;;
72201;SDS011;60105;54.956;73.412;2022-09-24T01:59:48;47.63;;;27.38;;
72201;SDS011;60105;54.956;73.412;2022-09-24T02:02:22;44.50;;;26.17;;
72201;SDS011;60105;54.956;73.412;2022-09-24T02:04:59;52.53;;;28.70;;
72201;SDS011;60105;54.956;73.412;2022-09-24T02:07:39;44.13;;;26.20;;
72201;SDS011;60105;54.956;73.412;2022-09-24T02:10:15;46.72;;;26.15;;
72201;SDS011;60105;54.956;73.412;2022-09-24T02:12:43;50.03;;;26.95;;
72201;SDS011;60105;54.956;73.412;2022-09-24T02:15:18;57.38;;;27.50;;
72201;SDS011;60105;54.956;73.412;2022-09-24T02:17:52;53.37;;;27.73;;
72201;SDS011;60105;54.956;73.412;2022-09-24T02:20:22;49.92;;;27.65;;
72201;SDS011;60105;54.956;73.412;2022-09-24T02:23:02;45.55;;;26.90;;
72201;SDS011;60105;54.956;73.412;2022-09-24T02:25:34;42.08;;;23.08;;
72201;SDS011;60105;54.956;73.412;2022-09-24T02:28:18;38.40;;;21.15;;
72201;SDS011;60105;54.956;73.412;2022-09-24T02:30:47;37.80;;;19.03;;
72201;SDS011;60105;54.956;73.412;2022-09-24T02:33:28;34.75;;;18.05;;
72201;SDS011;60105;54.956;73.412;2022-09-24T02:36:16;43.88;;;21.38;;
72201;SDS011;60105;54.956;73.412;2022-09-24T02:38:43;48.55;;;22.48;;
72201;SDS011;60105;54.956;73.412;2022-09-24T02:41:11;41.28;;;20.75;;
72201;SDS011;60105;54.956;73.412;2022-09-24T02:43:39;39.73;;;19.77;;
72201;SDS011;60105;54.956;73.412;2022-09-24T02:46:06;41.63;;;19.80;;
72201;SDS011;60105;54.956;73.412;2022-09-24T02:48:35;33.78;;;18.95;;
72201;SDS011;60105;54.956;73.412;2022-09-24T02:51:02;36.95;;;19.70;;
72201;SDS011;60105;54.956;73.412;2022-09-24T02:53:39;42.92;;;18.75;;
72201;SDS011;60105;54.956;73.412;2022-09-24T02:56:05;37.17;;;17.97;;
72201;SDS011;60105;54.956;73.412;2022-09-24T02:58:32;31.27;;;18.05;;
72201;SDS011;60105;54.956;73.412;2022-09-24T03:01:02;30.60;;;15.48;;
72201;SDS011;60105;54.956;73.412;2022-09-24T03:03:30;32.42;;;15.38;;
72201;SDS011;60105;54.956;73.412;2022-09-24T03:05:57;27.00;;;14.57;;
72201;SDS011;60105;54.956;73.412;2022-09-24T03:08:23;24.17;;;14.20;;
72201;SDS011;60105;54.956;73.412;2022-09-24T03:10:50;28.88;;;15.18;;
72201;SDS011;60105;54.956;73.412;2022-09-24T03:13:19;27.92;;;15.35;;
72201;SDS011;60105;54.956;73.412;2022-09-24T03:15:45;22.60;;;13.98;;
72201;SDS011;60105;54.956;73.412;2022-09-24T03:18:21;31.15;;;14.10;;
72201;SDS011;60105;54.956;73.412;2022-09-24T03:20:58;25.00;;;13.33;;
72201;SDS011;60105;54.956;73.412;2022-09-24T03:23:26;25.13;;;14.38;;
72201;SDS011;60105;54.956;73.412;2022-09-24T03:25:53;24.40;;;13.30;;
72201;SDS011;60105;54.956;73.412;2022-09-24T03:28:19;27.95;;;13.30;;
72201;SDS011;60105;54.956;73.412;2022-09-24T03:30:51;22.20;;;12.85;;
72201;SDS011;60105;54.956;73.412;2022-09-24T03:36:01;33.95;;;14.07;;
72201;SDS011;60105;54.956;73.412;2022-09-24T03:38:45;29.58;;;13.05;;
72201;SDS011;60105;54.956;73.412;2022-09-24T03:41:13;54.75;;;30.55;;
72201;SDS011;60105;54.956;73.412;2022-09-24T03:43:40;28.52;;;15.48;;
72201;SDS011;60105;54.956;73.412;2022-09-24T03:46:06;43.47;;;22.63;;
72201;SDS011;60105;54.956;73.412;2022-09-24T03:48:35;74.85;;;40.30;;
72201;SDS011;60105;54.956;73.412;2022-09-24T03:51:07;34.50;;;16.08;;
72201;SDS011;60105;54.956;73.412;2022-09-24T03:53:35;27.58;;;12.60;;
72201;SDS011;60105;54.956;73.412;2022-09-24T03:56:02;21.25;;;12.00;;
72201;SDS011;60105;54.956;73.412;2022-09-24T03:58:31;26.03;;;12.97;;
72201;SDS011;60105;54.956;73.412;2022-09-24T04:01:00;32.95;;;11.27;;
72201;SDS011;60105;54.956;73.412;2022-09-24T04:03:27;57.92;;;27.33;;
72201;SDS011;60105;54.956;73.412;2022-09-24T04:05:53;26.25;;;11.52;;
72201;SDS011;60105;54.956;73.412;2022-09-24T04:08:19;25.35;;;14.23;;
72201;SDS011;60105;54.956;73.412;2022-09-24T04:10:49;23.13;;;10.33;;
72201;SDS011;60105;54.956;73.412;2022-09-24T04:13:16;22.88;;;10.32;;
72201;SDS011;60105;54.956;73.412;2022-09-24T04:15:44;18.23;;;9.50;;
72201;SDS011;60105;54.956;73.412;2022-09-24T04:18:21;18.48;;;9.57;;
72201;SDS011;60105;54.956;73.412;2022-09-24T04:20:47;28.17;;;17.00;;
72201;SDS011;60105;54.956;73.412;2022-09-24T04:23:13;24.23;;;14.33;;
72201;SDS011;60105;54.956;73.412;2022-09-24T04:25:40;18.38;;;9.82;;
72201;SDS011;60105;54.956;73.412;2022-09-24T04:28:16;54.00;;;25.33;;
72201;SDS011;60105;54.956;73.412;2022-09-24T04:30:42;22.40;;;10.85;;
72201;SDS011;60105;54.956;73.412;2022-09-24T04:33:08;20.75;;;10.25;;
72201;SDS011;60105;54.956;73.412;2022-09-24T04:35:42;19.50;;;8.90;;
72201;SDS011;60105;54.956;73.412;2022-09-24T04:38:10;23.13;;;10.15;;
72201;SDS011;60105;54.956;73.412;2022-09-24T04:40:36;21.45;;;11.07;;
72201;SDS011;60105;54.956;73.412;2022-09-24T04:43:04;20.85;;;10.23;;
72201;SDS011;60105;54.956;73.412;2022-09-24T04:45:32;20.75;;;10.55;;
72201;SDS011;60105;54.956;73.412;2022-09-24T04:47:58;21.53;;;8.87;;
72201;SDS011;60105;54.956;73.412;2022-09-24T04:50:34;22.08;;;8.70;;
72201;SDS011;60105;54.956;73.412;2022-09-24T04:53:04;16.75;;;8.05;;
72201;SDS011;60105;54.956;73.412;2022-09-24T04:55:31;23.23;;;10.52;;
72201;SDS011;60105;54.956;73.412;2022-09-24T04:57:57;26.10;;;11.32;;
72201;SDS011;60105;54.956;73.412;2022-09-24T05:00:24;23.93;;;10.00;;
72201;SDS011;60105;54.956;73.412;2022-09-24T05:02:55;22.38;;;8.20;;
72201;SDS011;60105;54.956;73.412;2022-09-24T05:05:32;20.23;;;7.63;;
72201;SDS011;60105;54.956;73.412;2022-09-24T05:08:00;20.10;;;8.48;;
72201;SDS011;60105;54.956;73.412;2022-09-24T05:10:27;28.65;;;7.82;;
72201;SDS011;60105;54.956;73.412;2022-09-24T05:12:55;18.47;;;6.83;;
72201;SDS011;60105;54.956;73.412;2022-09-24T05:15:22;20.60;;;7.20;;
72201;SDS011;60105;54.956;73.412;2022-09-24T05:17:48;19.10;;;7.15;;
72201;SDS011;60105;54.956;73.412;2022-09-24T05:20:15;16.15;;;6.28;;
72201;SDS011;60105;54.956;73.412;2022-09-24T05:22:45;17.48;;;7.50;;
72201;SDS011;60105;54.956;73.412;2022-09-24T05:25:14;22.03;;;7.07;;
72201;SDS011;60105;54.956;73.412;2022-09-24T05:27:43;17.42;;;7.93;;
72201;SDS011;60105;54.956;73.412;2022-09-24T05:30:21;23.42;;;7.65;;
72201;SDS011;60105;54.956;73.412;2022-09-24T05:32:49;20.20;;;7.72;;
72201;SDS011;60105;54.956;73.412;2022-09-24T05:35:17;34.80;;;7.70;;
72201;SDS011;60105;54.956;73.412;2022-09-24T05:37:44;19.60;;;8.17;;
72201;SDS011;60105;54.956;73.412;2022-09-24T05:40:14;18.60;;;6.97;;
72201;SDS011;60105;54.956;73.412;2022-09-24T05:42:59;18.92;;;7.65;;
72201;SDS011;60105;54.956;73.412;2022-09-24T05:45:26;24.38;;;6.82;;
72201;SDS011;60105;54.956;73.412;2022-09-24T05:47:53;22.00;;;7.40;;
72201;SDS011;60105;54.956;73.412;2022-09-24T05:50:20;20.97;;;6.80;;
72201;SDS011;60105;54.956;73.412;2022-09-24T05:52:50;17.55;;;7.88;;
72201;SDS011;60105;54.956;73.412;2022-09-24T05:55:17;16.75;;;7.25;;
72201;SDS011;60105;54.956;73.412;2022-09-24T05:57:43;18.30;;;7.72;;
72201;SDS011;60105;54.956;73.412;2022-09-24T06:00:10;15.18;;;7.60;;
72201;SDS011;60105;54.956;73.412;2022-09-24T06:02:39;21.13;;;7.20;;
72201;SDS011;60105;54.956;73.412;2022-09-24T06:05:06;23.23;;;7.40;;
72201;SDS011;60105;54.956;73.412;2022-09-24T06:07:32;17.00;;;7.50;;
72201;SDS011;60105;54.956;73.412;2022-09-24T06:09:59;20.60;;;7.65;;
72201;SDS011;60105;54.956;73.412;2022-09-24T06:12:25;17.40;;;6.80;;
72201;SDS011;60105;54.956;73.412;2022-09-24T06:14:52;14.67;;;7.00;;
72201;SDS011;60105;54.956;73.412;2022-09-24T06:17:19;25.35;;;6.90;;
72201;SDS011;60105;54.956;73.412;2022-09-24T06:19:45;19.35;;;7.10;;
72201;SDS011;60105;54.956;73.412;2022-09-24T06:22:12;13.93;;;7.32;;
72201;SDS011;60105;54.956;73.412;2022-09-24T06:24:38;19.00;;;7.13;;
72201;SDS011;60105;54.956;73.412;2022-09-24T06:27:09;13.33;;;7.03;;
72201;SDS011;60105;54.956;73.412;2022-09-24T06:29:36;18.42;;;7.90;;
72201;SDS011;60105;54.956;73.412;2022-09-24T06:32:02;13.50;;;7.00;;
72201;SDS011;60105;54.956;73.412;2022-09-24T06:34:29;20.17;;;7.55;;
72201;SDS011;60105;54.956;73.412;2022-09-24T06:36:55;21.60;;;7.10;;
72201;SDS011;60105;54.956;73.412;2022-09-24T06:39:22;20.57;;;7.03;;
72201;SDS011;60105;54.956;73.412;2022-09-24T06:41:49;17.60;;;7.78;;
72201;SDS011;60105;54.956;73.412;2022-09-24T06:44:16;14.02;;;7.43;;
72201;SDS011;60105;54.956;73.412;2022-09-24T06:46:43;15.52;;;7.10;;
72201;SDS011;60105;54.956;73.412;2022-09-24T06:49:18;17.63;;;7.80;;
72201;SDS011;60105;54.956;73.412;2022-09-24T06:51:44;18.93;;;7.07;;
72201;SDS011;60105;54.956;73.412;2022-09-24T06:54:10;17.77;;;7.57;;
72201;SDS011;60105;54.956;73.412;2022-09-24T06:56:36;19.10;;;7.82;;
72201;SDS011;60105;54.956;73.412;2022-09-24T06:59:03;20.33;;;7.88;;
72201;SDS011;60105;54.956;73.412;2022-09-24T07:01:31;20.13;;;7.30;;
72201;SDS011;60105;54.956;73.412;2022-09-24T07:03:57;20.33;;;7.20;;
72201;SDS011;60105;54.956;73.412;2022-09-24T07:06:23;17.88;;;7.03;;
72201;SDS011;60105;54.956;73.412;2022-09-24T07:08:50;16.85;;;8.00;;
72201;SDS011;60105;54.956;73.412;2022-09-24T07:11:16;19.15;;;7.65;;
72201;SDS011;60105;54.956;73.412;2022-09-24T07:13:43;18.45;;;7.68;;
72201;SDS011;60105;54.956;73.412;2022-09-24T07:16:09;21.23;;;7.53;;
72201;SDS011;60105;54.956;73.412;2022-09-24T07:18:45;16.95;;;7.43;;
72201;SDS011;60105;54.956;73.412;2022-09-24T07:21:11;16.15;;;7.10;;
72201;SDS011;60105;54.956;73.412;2022-09-24T07:23:37;16.90;;;7.60;;
72201;SDS011;60105;54.956;73.412;2022-09-24T07:26:04;18.98;;;8.07;;
72201;SDS011;60105;54.956;73.412;2022-09-24T07:28:40;23.57;;;8.13;;
72201;SDS011;60105;54.956;73.412;2022-09-24T07:31:16;21.55;;;8.38;;
72201;SDS011;60105;54.956;73.412;2022-09-24T07:33:42;17.98;;;7.63;;
72201;SDS011;60105;54.956;73.412;2022-09-24T07:36:09;18.30;;;7.60;;
72201;SDS011;60105;54.956;73.412;2022-09-24T07:38:39;22.92;;;8.10;;
72201;SDS011;60105;54.956;73.412;2022-09-24T07:41:06;22.43;;;7.70;;
72201;SDS011;60105;54.956;73.412;2022-09-24T07:43:34;17.75;;;6.80;;
72201;SDS011;60105;54.956;73.412;2022-09-24T07:46:06;16.30;;;7.88;;
72201;SDS011;60105;54.956;73.412;2022-09-24T07:48:43;23.20;;;6.65;;
72201;SDS011;60105;54.956;73.412;2022-09-24T07:51:09;14.70;;;7.03;;
72201;SDS011;60105;54.956;73.412;2022-09-24T07:53:35;22.03;;;7.00;;
72201;SDS011;60105;54.956;73.412;2022-09-24T07:56:03;19.02;;;6.40;;
72201;SDS011;60105;54.956;73.412;2022-09-24T07:58:29;18.00;;;6.72;;
72201;SDS011;60105;54.956;73.412;2022-09-24T08:00:56;18.95;;;8.90;;
72201;SDS011;60105;54.956;73.412;2022-09-24T08:03:28;23.60;;;10.88;;
72201;SDS011;60105;54.956;73.412;2022-09-24T08:05:54;15.13;;;6.87;;
72201;SDS011;60105;54.956;73.412;2022-09-24T08:08:23;16.70;;;7.38;;
72201;SDS011;60105;54.956;73.412;2022-09-24T08:10:49;17.25;;;7.72;;
72201;SDS011;60105;54.956;73.412;2022-09-24T08:13:25;21.15;;;8.00;;
72201;SDS011;60105;54.956;73.412;2022-09-24T08:15:55;23.38;;;12.77;;
72201;SDS011;60105;54.956;73.412;2022-09-24T08:18:25;26.47;;;8.57;;
72201;SDS011;60105;54.956;73.412;2022-09-24T08:20:53;20.75;;;7.25;;
72201;SDS011;60105;54.956;73.412;2022-09-24T08:23:20;25.77;;;7.70;;
72201;SDS011;60105;54.956;73.412;2022-09-24T08:25:46;17.10;;;6.63;;
72201;SDS011;60105;54.956;73.412;2022-09-24T08:28:12;21.55;;;9.45;;
72201;SDS011;60105;54.956;73.412;2022-09-24T08:30:41;25.60;;;12.17;;
72201;SDS011;60105;54.956;73.412;2022-09-24T08:33:09;28.65;;;11.60;;
72201;SDS011;60105;54.956;73.412;2022-09-24T08:35:36;18.83;;;9.70;;
72201;SDS011;60105;54.956;73.412;2022-09-24T08:38:04;22.15;;;7.05;;
72201;SDS011;60105;54.956;73.412;2022-09-24T08:40:54;18.83;;;7.78;;
72201;SDS011;60105;54.956;73.412;2022-09-24T08:43:41;46.10;;;26.97;;
72201;SDS011;60105;54.956;73.412;2022-09-24T08:49:26;25.23;;;14.57;;
72201;SDS011;60105;54.956;73.412;2022-09-24T08:51:58;31.80;;;14.40;;
72201;SDS011;60105;54.956;73.412;2022-09-24T08:54:34;37.55;;;17.23;;
72201;SDS011;60105;54.956;73.412;2022-09-24T08:57:04;70.07;;;39.40;;
72201;SDS011;60105;54.956;73.412;2022-09-24T08:59:37;20.35;;;9.05;;
72201;SDS011;60105;54.956;73.412;2022-09-24T09:10:38;18.53;;;6.17;;
72201;SDS011;60105;54.956;73.412;2022-09-24T09:13:10;53.15;;;29.35;;
72201;SDS011;60105;54.956;73.412;2022-09-24T09:15:48;20.90;;;11.32;;
72201;SDS011;60105;54.956;73.412;2022-09-24T09:21:14;22.15;;;9.52;;
72201;SDS011;60105;54.956;73.412;2022-09-24T09:23:53;16.13;;;6.33;;
72201;SDS011;60105;54.956;73.412;2022-09-24T09:26:23;20.23;;;7.65;;
72201;SDS011;60105;54.956;73.412;2022-09-24T09:28:51;16.42;;;6.40;;
72201;SDS011;60105;54.956;73.412;2022-09-24T09:31:30;81.28;;;46.10;;
72201;SDS011;60105;54.956;73.412;2022-09-24T09:34:21;20.10;;;6.93;;
72201;SDS011;60105;54.956;73.412;2022-09-24T09:37:11;80.07;;;48.20;;
72201;SDS011;60105;54.956;73.412;2022-09-24T09:42:35;26.70;;;12.13;;
72201;SDS011;60105;54.956;73.412;2022-09-24T09:45:14;50.00;;;30.38;;
72201;SDS011;60105;54.956;73.412;2022-09-24T09:47:52;36.88;;;19.52;;
72201;SDS011;60105;54.956;73.412;2022-09-24T09:50:28;22.07;;;10.97;;
72201;SDS011;60105;54.956;73.412;2022-09-24T09:53:19;17.55;;;6.90;;
72201;SDS011;60105;54.956;73.412;2022-09-24T09:55:52;46.85;;;18.88;;
72201;SDS011;60105;54.956;73.412;2022-09-24T09:58:24;61.33;;;33.25;;
72201;SDS011;60105;54.956;73.412;2022-09-24T10:01:01;48.30;;;28.67;;
72201;SDS011;60105;54.956;73.412;2022-09-24T10:06:12;58.13;;;31.23;;
72201;SDS011;60105;54.956;73.412;2022-09-24T10:08:47;67.97;;;39.88;;
72201;SDS011;60105;54.956;73.412;2022-09-24T10:11:14;31.00;;;11.68;;
72201;SDS011;60105;54.956;73.412;2022-09-24T10:13:42;45.33;;;29.35;;
72201;SDS011;60105;54.956;73.412;2022-09-24T10:16:09;28.40;;;11.40;;
72201;SDS011;60105;54.956;73.412;2022-09-24T10:18:41;25.88;;;12.45;;
72201;SDS011;60105;54.956;73.412;2022-09-24T10:21:31;26.45;;;9.30;;
72201;SDS011;60105;54.956;73.412;2022-09-24T10:24:00;73.00;;;42.05;;
72201;SDS011;60105;54.956;73.412;2022-09-24T10:26:39;23.00;;;8.63;;
72201;SDS011;60105;54.956;73.412;2022-09-24T10:29:17;21.87;;;6.83;;
72201;SDS011;60105;54.956;73.412;2022-09-24T10:32:29;17.33;;;7.50;;
72201;SDS011;60105;54.956;73.412;2022-09-24T10:34:56;52.25;;;31.13;;
72201;SDS011;60105;54.956;73.412;2022-09-24T10:37:27;36.55;;;16.38;;
72201;SDS011;60105;54.956;73.412;2022-09-24T10:39:58;21.25;;;7.10;;
72201;SDS011;60105;54.956;73.412;2022-09-24T10:42:53;20.37;;;7.50;;
72201;SDS011;60105;54.956;73.412;2022-09-24T10:48:25;26.65;;;11.20;;
72201;SDS011;60105;54.956;73.412;2022-09-24T10:56:59;27.43;;;8.20;;
72201;SDS011;60105;54.956;73.412;2022-09-24T11:02:44;37.03;;;19.55;;
72201;SDS011;60105;54.956;73.412;2022-09-24T11:25:26;32.50;;;12.97;;
72201;SDS011;60105;54.956;73.412;2022-09-24T11:39:24;21.20;;;9.10;;
72201;SDS011;60105;54.956;73.412;2022-09-24T11:42:20;25.83;;;15.07;;
72201;SDS011;60105;54.956;73.412;2022-09-24T11:50:58;32.25;;;11.07;;
72201;SDS011;60105;54.956;73.412;2022-09-24T11:58:52;38.10;;;11.52;;
72201;SDS011;60105;54.956;73.412;2022-09-24T12:01:24;27.92;;;10.63;;
72201;SDS011;60105;54.956;73.412;2022-09-24T12:03:56;32.90;;;10.90;;
72201;SDS011;60105;54.956;73.412;2022-09-24T12:06:35;33.20;;;11.47;;
72201;SDS011;60105;54.956;73.412;2022-09-24T12:11:46;36.50;;;13.23;;
72201;SDS011;60105;54.956;73.412;2022-09-24T12:14:26;44.53;;;21.27;;
72201;SDS011;60105;54.956;73.412;2022-09-24T12:17:04;33.75;;;14.68;;
72201;SDS011;60105;54.956;73.412;2022-09-24T12:19:51;34.37;;;15.40;;
72201;SDS011;60105;54.956;73.412;2022-09-24T12:22:31;32.28;;;13.13;;
72201;SDS011;60105;54.956;73.412;2022-09-24T12:25:00;36.42;;;13.60;;
72201;SDS011;60105;54.956;73.412;2022-09-24T12:36:02;42.35;;;14.35;;
72201;SDS011;60105;54.956;73.412;2022-09-24T12:38:43;35.30;;;15.63;;
72201;SDS011;60105;54.956;73.412;2022-09-24T12:51:51;47.15;;;17.52;;
72201;SDS011;60105;54.956;73.412;2022-09-24T12:54:21;39.65;;;18.73;;
72201;SDS011;60105;54.956;73.412;2022-09-24T12:57:14;51.00;;;20.73;;
72201;SDS011;60105;54.956;73.412;2022-09-24T12:59:45;41.00;;;18.40;;
72201;SDS011;60105;54.956;73.412;2022-09-24T13:02:14;40.30;;;18.98;;
72201;SDS011;60105;54.956;73.412;2022-09-24T13:04:43;51.70;;;19.10;;
72201;SDS011;60105;54.956;73.412;2022-09-24T13:07:34;43.67;;;18.75;;
72201;SDS011;60105;54.956;73.412;2022-09-24T13:12:43;44.30;;;17.40;;
72201;SDS011;60105;54.956;73.412;2022-09-24T13:15:30;45.65;;;17.90;;
72201;SDS011;60105;54.956;73.412;2022-09-24T13:18:22;32.88;;;16.95;;
72201;SDS011;60105;54.956;73.412;2022-09-24T13:21:05;38.92;;;18.35;;
72201;SDS011;60105;54.956;73.412;2022-09-24T13:23:44;35.90;;;17.90;;
72201;SDS011;60105;54.956;73.412;2022-09-24T13:26:34;46.37;;;20.73;;
72201;SDS011;60105;54.956;73.412;2022-09-24T13:29:00;61.22;;;25.65;;
72201;SDS011;60105;54.956;73.412;2022-09-24T13:33:54;52.25;;;22.48;;
72201;SDS011;60105;54.956;73.412;2022-09-24T13:36:49;54.65;;;28.73;;
72201;SDS011;60105;54.956;73.412;2022-09-24T13:42:29;58.13;;;26.40;;
72201;SDS011;60105;54.956;73.412;2022-09-24T13:45:03;56.45;;;25.52;;
72201;SDS011;60105;54.956;73.412;2022-09-24T13:50:26;57.33;;;25.60;;
72201;SDS011;60105;54.956;73.412;2022-09-24T13:55:52;65.05;;;26.83;;
72201;SDS011;60105;54.956;73.412;2022-09-24T13:58:30;64.82;;;34.92;;
72201;SDS011;60105;54.956;73.412;2022-09-24T14:00:59;68.63;;;37.70;;
72201;SDS011;60105;54.956;73.412;2022-09-24T14:03:40;94.63;;;47.08;;
72201;SDS011;60105;54.956;73.412;2022-09-24T14:06:16;102.57;;;50.33;;
72201;SDS011;60105;54.956;73.412;2022-09-24T14:08:48;109.18;;;53.58;;
72201;SDS011;60105;54.956;73.412;2022-09-24T14:11:18;96.82;;;52.95;;
72201;SDS011;60105;54.956;73.412;2022-09-24T14:13:45;105.00;;;55.60;;
72201;SDS011;60105;54.956;73.412;2022-09-24T14:16:18;109.78;;;53.53;;
72201;SDS011;60105;54.956;73.412;2022-09-24T14:18:46;128.83;;;58.83;;
72201;SDS011;60105;54.956;73.412;2022-09-24T14:21:18;105.78;;;54.05;;
72201;SDS011;60105;54.956;73.412;2022-09-24T14:29:10;103.25;;;54.08;;
72201;SDS011;60105;54.956;73.412;2022-09-24T14:31:52;111.77;;;56.03;;
72201;SDS011;60105;54.956;73.412;2022-09-24T14:34:30;114.20;;;59.70;;
72201;SDS011;60105;54.956;73.412;2022-09-24T14:40:00;123.65;;;63.20;;
72201;SDS011;60105;54.956;73.412;2022-09-24T14:44:56;113.07;;;58.43;;
72201;SDS011;60105;54.956;73.412;2022-09-24T14:47:30;103.78;;;53.42;;
72201;SDS011;60105;54.956;73.412;2022-09-24T14:49:58;92.95;;;48.42;;
72201;SDS011;60105;54.956;73.412;2022-09-24T14:55:00;99.55;;;50.80;;
72201;SDS011;60105;54.956;73.412;2022-09-24T14:57:37;104.80;;;49.87;;
72201;SDS011;60105;54.956;73.412;2022-09-24T15:00:26;106.18;;;52.05;;
72201;SDS011;60105;54.956;73.412;2022-09-24T15:05:45;98.85;;;50.45;;
72201;SDS011;60105;54.956;73.412;2022-09-24T15:10:55;91.93;;;48.77;;
72201;SDS011;60105;54.956;73.412;2022-09-24T15:13:33;102.60;;;51.75;;
72201;SDS011;60105;54.956;73.412;2022-09-24T15:16:18;94.20;;;48.70;;
72201;SDS011;60105;54.956;73.412;2022-09-24T15:21:36;115.22;;;61.90;;
72201;SDS011;60105;54.956;73.412;2022-09-24T15:24:08;111.07;;;58.13;;
72201;SDS011;60105;54.956;73.412;2022-09-24T15:26:46;116.00;;;61.78;;
72201;SDS011;60105;54.956;73.412;2022-09-24T15:29:16;122.45;;;57.95;;
72201;SDS011;60105;54.956;73.412;2022-09-24T15:31:53;121.45;;;57.13;;
72201;SDS011;60105;54.956;73.412;2022-09-24T15:34:21;112.82;;;57.92;;
72201;SDS011;60105;54.956;73.412;2022-09-24T15:36:47;124.87;;;61.77;;
72201;SDS011;60105;54.956;73.412;2022-09-24T15:39:24;107.85;;;59.60;;
72201;SDS011;60105;54.956;73.412;2022-09-24T15:42:02;102.63;;;55.65;;
72201;SDS011;60105;54.956;73.412;2022-09-24T15:44:28;97.30;;;55.30;;
72201;SDS011;60105;54.956;73.412;2022-09-24T15:46:57;103.70;;;54.42;;
72201;SDS011;60105;54.956;73.412;2022-09-24T15:49:34;100.73;;;55.20;;
72201;SDS011;60105;54.956;73.412;2022-09-24T15:54:49;90.40;;;48.30;;
72201;SDS011;60105;54.956;73.412;2022-09-24T15:57:16;88.40;;;45.17;;
72201;SDS011;60105;54.956;73.412;2022-09-24T15:59:42;80.68;;;42.40;;
72201;SDS011;60105;54.956;73.412;2022-09-24T16:02:13;89.27;;;42.53;;
72201;SDS011;60105;54.956;73.412;2022-09-24T16:04:42;86.20;;;43.80;;
72201;SDS011;60105;54.956;73.412;2022-09-24T16:07:09;78.57;;;39.67;;
72201;SDS011;60105;54.956;73.412;2022-09-24T16:09:35;68.32;;;33.10;;
72201;SDS011;60105;54.956;73.412;2022-09-24T16:12:01;64.57;;;31.80;;
72201;SDS011;60105;54.956;73.412;2022-09-24T16:14:31;60.87;;;33.07;;
72201;SDS011;60105;54.956;73.412;2022-09-24T16:17:03;68.97;;;32.47;;
72201;SDS011;60105;54.956;73.412;2022-09-24T16:19:39;81.70;;;44.05;;
72201;SDS011;60105;54.956;73.412;2022-09-24T16:22:15;71.18;;;38.00;;
72201;SDS011;60105;54.956;73.412;2022-09-24T16:24:42;67.40;;;35.13;;
72201;SDS011;60105;54.956;73.412;2022-09-24T16:27:08;65.70;;;32.90;;
72201;SDS011;60105;54.956;73.412;2022-09-24T16:29:39;62.78;;;33.15;;
72201;SDS011;60105;54.956;73.412;2022-09-24T16:32:11;70.57;;;36.50;;
72201;SDS011;60105;54.956;73.412;2022-09-24T16:34:38;85.05;;;45.00;;
72201;SDS011;60105;54.956;73.412;2022-09-24T16:37:08;93.25;;;45.38;;
72201;SDS011;60105;54.956;73.412;2022-09-24T16:39:34;84.40;;;43.10;;
72201;SDS011;60105;54.956;73.412;2022-09-24T16:42:00;88.60;;;46.47;;
72201;SDS011;60105;54.956;73.412;2022-09-24T16:44:27;86.50;;;46.60;;
72201;SDS011;60105;54.956;73.412;2022-09-24T16:46:53;82.55;;;46.95;;
72201;SDS011;60105;54.956;73.412;2022-09-24T16:49:21;98.90;;;47.47;;
72201;SDS011;60105;54.956;73.412;2022-09-24T16:51:48;87.77;;;43.47;;
72201;SDS011;60105;54.956;73.412;2022-09-24T16:54:18;85.25;;;46.08;;
72201;SDS011;60105;54.956;73.412;2022-09-24T16:56:48;90.25;;;43.17;;
72201;SDS011;60105;54.956;73.412;2022-09-24T16:59:15;93.10;;;45.95;;
72201;SDS011;60105;54.956;73.412;2022-09-24T17:01:42;109.03;;;51.88;;
72201;SDS011;60105;54.956;73.412;2022-09-24T17:04:13;96.87;;;50.73;;
72201;SDS011;60105;54.956;73.412;2022-09-24T17:06:44;109.13;;;52.88;;
72201;SDS011;60105;54.956;73.412;2022-09-24T17:09:11;102.18;;;54.97;;
72201;SDS011;60105;54.956;73.412;2022-09-24T17:11:56;102.15;;;51.85;;
72201;SDS011;60105;54.956;73.412;2022-09-24T17:14:23;121.57;;;60.35;;
72201;SDS011;60105;54.956;73.412;2022-09-24T17:16:49;114.47;;;59.57;;